Time;durP1;ratioP1;P1;durP2;ratioP2;P2;SDS_P1;SDS_P2;PMS_P1;PMS_P2;Temp;Humidity;BMP_temperature;BMP_pressure;BME280_temperature;BME280_humidity;BME280_pressure;Samples;Min_cycle;Max_cycle;Signal;HPM_P1;HPM_P2
2022/06/22 00:00:46;;;;;;;;;;;;;;;-142.75;100.00;76843.91;4990776;28;19921;-72
2022/06/22 00:03:11;;;;;;;;;;;;;;;-142.75;100.00;76853.75;4990432;28;19980;-71
2022/06/22 00:05:55;;;;;;;;;;;;;;;-142.75;100.00;76839.97;4990371;28;20444;-71
2022/06/22 00:08:22;;;;;;;;;;;;;;;-142.75;100.00;76834.06;4990089;28;20294;-71
2022/06/22 00:10:55;;;;;;;;;;;;;;;-142.75;100.00;76826.19;4972969;28;19970;-72
2022/06/22 00:13:25;;;;;;;;;;;;;;;-142.75;100.00;76832.09;4990217;28;20395;-72
2022/06/22 00:15:56;;;;;;;;;;;;;;;-142.75;100.00;76832.09;4972412;28;20515;-72
2022/06/22 00:18:27;;;;;;;;;;;;;;;-142.75;100.00;76824.22;4989884;28;19967;-73
2022/06/22 00:20:54;;;;;;;;;;;;;;;-142.75;100.00;76830.13;4990273;28;20387;-72
2022/06/22 00:23:24;;;;;;;;;;;;;;;-142.75;100.00;76830.13;4990234;28;20284;-71
2022/06/22 00:25:50;;;;;;;;;;;;;;;-142.75;100.00;76838.00;4973054;28;20291;-69
2022/06/22 00:28:33;;;;;;;;;;;;;;;-142.75;100.00;76839.97;4972277;28;19921;-71
2022/06/22 00:31:02;;;;;;;;;;;;;;;-142.75;100.00;76847.84;4990052;28;20009;-73
2022/06/22 00:33:28;;;;;;;;;;;;;;;-142.75;100.00;76851.78;4989985;28;19922;-71
2022/06/22 00:36:14;;;;;;;;;;;;;;;-142.75;100.00;76857.69;4990023;28;20450;-72
2022/06/22 00:38:39;;;;;;;;;;;;;;;-142.75;100.00;76859.66;4988898;28;19970;-70
2022/06/22 00:41:31;;;;;;;;;;;;;;;-142.75;100.00;76863.59;4972499;28;20263;-71
2022/06/22 00:43:56;;;;;;;;;;;;;;;-142.75;100.00;76887.22;4986001;28;20272;-71
2022/06/22 00:46:22;;;;;;;;;;;;;;;-142.75;100.00;76885.25;4989853;28;19920;-71
2022/06/22 00:48:49;;;;;;;;;;;;;;;-142.75;100.00;76877.38;4989526;28;20371;-71
2022/06/22 00:51:17;;;;;;;;;;;;;;;-142.75;100.00;76885.25;4989797;28;19914;-72
2022/06/22 00:53:54;;;;;;;;;;;;;;;-142.75;100.00;76885.25;4989708;28;19918;-72
2022/06/22 00:56:20;;;;;;;;;;;;;;;-142.75;100.00;76891.16;4989644;28;20387;-71
2022/06/22 00:58:47;;;;;;;;;;;;;;;-142.75;100.00;76902.97;4989389;28;19914;-72
2022/06/22 01:01:17;;;;;;;;;;;;;;;-142.75;100.00;76910.84;4989812;28;19914;-73
2022/06/22 01:03:47;;;;;;;;;;;;;;;-142.75;100.00;76912.81;4989680;28;19921;-71
2022/06/22 01:06:26;;;;;;;;;;;;;;;-142.75;100.00;76920.69;4989806;28;20012;-71
2022/06/22 01:08:59;;;;;;;;;;;;;;;-142.75;100.00;76938.41;4972098;28;20490;-70
2022/06/22 01:14:17;;;;;;;;;;;;;;;-142.75;100.00;76962.03;4989656;28;19971;-71
2022/06/22 01:16:45;;;;;;;;;;;;;;;-142.75;100.00;76964.00;4989612;28;19914;-72
2022/06/22 01:19:16;;;;;;;;;;;;;;;-142.75;100.00;76960.06;4989195;28;19913;-71
2022/06/22 01:21:46;;;;;;;;;;;;;;;-142.75;100.00;76960.06;4989487;28;20299;-71
2022/06/22 01:24:12;;;;;;;;;;;;;;;-142.75;100.00;76960.06;4989395;28;19914;-71
2022/06/22 01:26:45;;;;;;;;;;;;;;;-142.75;100.00;76964.00;4991222;28;20272;-71
2022/06/22 01:29:13;;;;;;;;;;;;;;;-142.75;100.00;76950.22;4992384;28;19957;-70
2022/06/22 01:31:43;;;;;;;;;;;;;;;-142.75;100.00;76950.22;4992679;28;19921;-71
2022/06/22 01:34:13;;;;;;;;;;;;;;;-142.75;100.00;76948.25;4992836;28;19913;-71
2022/06/22 01:36:39;;;;;;;;;;;;;;;-142.75;100.00;76958.09;4992783;28;19951;-71
2022/06/22 01:39:05;;;;;;;;;;;;;;;-142.75;100.00;76964.00;4992215;28;19918;-71
2022/06/22 01:41:40;;;;;;;;;;;;;;;-142.75;100.00;76964.00;4975123;28;19913;-71
2022/06/22 01:44:05;;;;;;;;;;;;;;;-142.75;100.00;76973.84;4992548;28;19914;-71
2022/06/22 01:46:36;;;;;;;;;;;;;;;-142.75;100.00;76981.72;4975071;28;19969;-71
2022/06/22 01:49:13;;;;;;;;;;;;;;;-142.75;100.00;76997.47;4992067;28;19921;-71
2022/06/22 01:51:42;;;;;;;;;;;;;;;-142.75;100.00;76995.50;4992381;28;19914;-70
2022/06/22 01:54:16;;;;;;;;;;;;;;;-142.75;100.00;76987.63;4992294;28;20009;-71
2022/06/22 01:57:06;;;;;;;;;;;;;;;-142.75;100.00;76981.72;4974969;28;19917;-71
2022/06/22 01:59:41;;;;;;;;;;;;;;;-142.75;100.00;76995.50;4974571;28;20372;-71
2022/06/22 02:02:25;;;;;;;;;;;;;;;-142.75;100.00;76995.50;4992288;28;19960;-71
2022/06/22 02:04:50;;;;;;;;;;;;;;;-142.75;100.00;76991.56;4974863;28;19996;-69
2022/06/22 02:10:20;;;;;;;;;;;;;;;-142.75;100.00;76967.94;4992079;28;19921;-71
2022/06/22 02:12:52;;;;;;;;;;;;;;;-142.75;100.00;76960.06;4991919;28;19932;-72
2022/06/22 02:15:27;;;;;;;;;;;;;;;-142.75;100.00;76962.03;4992091;28;20000;-71
2022/06/22 02:17:53;;;;;;;;;;;;;;;-142.75;100.00;76964.00;4991685;28;19920;-71
2022/06/22 02:20:19;;;;;;;;;;;;;;;-142.75;100.00;76967.94;4991957;28;19914;-71
2022/06/22 02:22:45;;;;;;;;;;;;;;;-142.75;100.00;76964.00;4992038;28;19959;-70
2022/06/22 02:25:11;;;;;;;;;;;;;;;-142.75;100.00;76964.00;4991862;28;19914;-69
2022/06/22 02:27:36;;;;;;;;;;;;;;;-142.75;100.00;76975.81;4991826;28;19920;-68
2022/06/22 02:30:02;;;;;;;;;;;;;;;-142.75;100.00;76979.75;4991581;28;20378;-72
2022/06/22 02:32:29;;;;;;;;;;;;;;;-142.75;100.00;76975.81;4991751;28;19967;-72
2022/06/22 02:34:55;;;;;;;;;;;;;;;-142.75;100.00;76983.69;4991845;28;19917;-71
2022/06/22 02:37:25;;;;;;;;;;;;;;;-142.75;100.00;76975.81;4991325;28;19914;-69
2022/06/22 02:39:53;;;;;;;;;;;;;;;-142.75;100.00;76973.84;4974300;28;19937;-68
2022/06/22 02:45:03;;;;;;;;;;;;;;;-142.75;100.00;76975.81;4991706;28;19920;-70
2022/06/22 02:47:31;;;;;;;;;;;;;;;-142.75;100.00;76977.78;4991525;28;20375;-70
2022/06/22 02:50:25;;;;;;;;;;;;;;;-142.75;100.00;76973.84;4989022;28;19920;-70
2022/06/22 02:52:52;;;;;;;;;;;;;;;-142.75;100.00;76979.75;4929332;28;19923;-68
2022/06/22 02:55:22;;;;;;;;;;;;;;;-142.75;100.00;76969.91;4991342;28;20375;-71
2022/06/22 02:57:54;;;;;;;;;;;;;;;-142.75;100.00;76971.88;4991002;28;19920;-70
2022/06/22 03:00:25;;;;;;;;;;;;;;;-142.75;100.00;76971.88;4988999;28;20008;-70
2022/06/22 03:03:01;;;;;;;;;;;;;;;-142.75;100.00;76975.81;4971976;28;20334;-68
2022/06/22 03:05:26;;;;;;;;;;;;;;;-142.75;100.00;76979.75;4971886;28;19918;-71
2022/06/22 03:07:56;;;;;;;;;;;;;;;-142.75;100.00;76987.63;4954307;28;19960;-67
2022/06/22 03:10:21;;;;;;;;;;;;;;;-142.75;100.00;76991.56;4971838;28;20569;-70
2022/06/22 03:12:47;;;;;;;;;;;;;;;-142.75;100.00;76991.56;4971722;28;19953;-71
2022/06/22 03:15:15;;;;;;;;;;;;;;;-142.75;100.00;77003.38;4971649;28;19914;-71
2022/06/22 03:17:40;;;;;;;;;;;;;;;-142.75;100.00;77021.09;4971662;28;19918;-70
2022/06/22 03:20:11;;;;;;;;;;;;;;;-142.75;100.00;77017.16;4987401;28;19959;-68
2022/06/22 03:22:43;;;;;;;;;;;;;;;-142.75;100.00;77019.13;5031888;28;19916;-69
2022/06/22 03:25:27;;;;;;;;;;;;;;;-142.75;100.00;77011.25;5018902;28;19992;-68
2022/06/22 03:27:55;;;;;;;;;;;;;;;-142.75;100.00;77011.25;5019105;28;19961;-68
2022/06/22 03:30:22;;;;;;;;;;;;;;;-142.75;100.00;77017.16;4994393;28;19920;-70
2022/06/22 03:32:51;;;;;;;;;;;;;;;-142.75;100.00;77027.00;4973415;28;19983;-70
2022/06/22 03:35:25;;;;;;;;;;;;;;;-142.75;100.00;77015.19;4990841;28;20375;-70
2022/06/22 03:37:59;;;;;;;;;;;;;;;-142.75;100.00;77013.22;4990524;28;19940;-69
2022/06/22 03:40:27;;;;;;;;;;;;;;;-142.75;100.00;77015.19;4990847;28;19917;-71
2022/06/22 03:42:54;;;;;;;;;;;;;;;-142.75;100.00;77013.22;4973348;28;20348;-71
2022/06/22 03:45:34;;;;;;;;;;;;;;;-142.75;100.00;77015.19;4990582;28;20485;-70
2022/06/22 03:48:12;;;;;;;;;;;;;;;-142.75;100.00;77015.19;4972946;28;19914;-70
2022/06/22 03:50:40;;;;;;;;;;;;;;;-142.75;100.00;77015.19;4972025;28;19921;-69
2022/06/22 03:53:14;;;;;;;;;;;;;;;-142.75;100.00;77011.25;4990510;28;19918;-70
2022/06/22 03:55:43;;;;;;;;;;;;;;;-142.75;100.00;77009.28;4990493;28;20383;-70
2022/06/22 03:58:09;;;;;;;;;;;;;;;-142.75;100.00;77011.25;4990239;28;20496;-70
2022/06/22 04:00:35;;;;;;;;;;;;;;;-142.75;100.00;77011.25;4990503;28;19997;-69
2022/06/22 04:03:01;;;;;;;;;;;;;;;-142.75;100.00;77019.13;4990419;28;19956;-70
2022/06/22 04:05:31;;;;;;;;;;;;;;;-142.75;100.00;77017.16;4990392;28;19913;-70
2022/06/22 04:07:56;;;;;;;;;;;;;;;-142.75;100.00;77021.09;4990097;28;20288;-70
2022/06/22 04:10:40;;;;;;;;;;;;;;;-142.75;100.00;77011.25;4972883;28;20020;-70
2022/06/22 04:13:15;;;;;;;;;;;;;;;-142.75;100.00;77007.31;4990336;28;19918;-69
2022/06/22 04:15:49;;;;;;;;;;;;;;;-142.75;100.00;76999.44;4990253;28;20008;-69
2022/06/22 04:18:18;;;;;;;;;;;;;;;-142.75;100.00;77005.34;4972476;28;20386;-70
2022/06/22 04:20:50;;;;;;;;;;;;;;;-142.75;100.00;77015.19;4972816;28;19918;-70
2022/06/22 04:23:21;;;;;;;;;;;;;;;-142.75;100.00;77011.25;4990173;28;19913;-71
2022/06/22 04:25:47;;;;;;;;;;;;;;;-142.75;100.00;77015.19;4990177;28;19914;-69
2022/06/22 04:28:14;;;;;;;;;;;;;;;-142.75;100.00;77015.19;4989749;28;19917;-69
2022/06/22 04:30:44;;;;;;;;;;;;;;;-142.75;100.00;77011.25;4990093;28;20375;-69
2022/06/22 04:33:30;;;;;;;;;;;;;;;-142.75;100.00;77007.31;4990023;28;19925;-70
2022/06/22 04:36:00;;;;;;;;;;;;;;;-142.75;100.00;76991.56;4990103;28;19921;-70
2022/06/22 04:38:26;;;;;;;;;;;;;;;-142.75;100.00;76981.72;4989425;28;19918;-71
2022/06/22 04:41:00;;;;;;;;;;;;;;;-142.75;100.00;76969.91;4988909;28;19949;-68
2022/06/22 04:43:27;;;;;;;;;;;;;;;-142.75;100.00;76960.06;4989831;28;19914;-70
2022/06/22 04:45:52;;;;;;;;;;;;;;;-142.75;100.00;76950.22;4989940;28;19914;-69
2022/06/22 04:48:21;;;;;;;;;;;;;;;-142.75;100.00;76946.28;4989611;28;20344;-70
2022/06/22 04:50:49;;;;;;;;;;;;;;;-142.75;100.00;76948.25;4989433;28;19914;-69
2022/06/22 04:53:18;;;;;;;;;;;;;;;-142.75;100.00;76940.38;4972147;28;20391;-70
2022/06/22 04:55:44;;;;;;;;;;;;;;;-142.75;100.00;76938.41;4968634;28;19922;-70
2022/06/22 04:58:22;;;;;;;;;;;;;;;-142.75;100.00;76928.56;4988897;28;19920;-70
2022/06/22 05:00:48;;;;;;;;;;;;;;;-142.75;100.00;76916.75;4989822;28;20004;-69
2022/06/22 05:03:14;;;;;;;;;;;;;;;-142.75;100.00;76906.91;4993058;28;19918;-68
2022/06/22 05:05:39;;;;;;;;;;;;;;;-142.75;100.00;76904.94;4992560;28;19914;-68
2022/06/22 05:08:16;;;;;;;;;;;;;;;-142.75;100.00;76899.03;4992673;28;19914;-70
2022/06/22 05:11:00;;;;;;;;;;;;;;;-142.75;100.00;76879.34;4992966;28;19914;-70
2022/06/22 05:13:28;;;;;;;;;;;;;;;-142.75;100.00;76861.63;4992881;28;19918;-71
2022/06/22 05:15:54;;;;;;;;;;;;;;;-142.75;100.00;76849.81;4992888;28;19918;-70
2022/06/22 05:18:40;;;;;;;;;;;;;;;-142.75;100.00;76849.81;4967762;28;19925;-71
2022/06/22 05:21:11;;;;;;;;;;;;;;;-142.75;100.00;76832.09;4963721;28;19915;-71
2022/06/22 05:23:36;;;;;;;;;;;;;;;-142.75;100.00;76820.28;4990010;28;19914;-71
2022/06/22 05:26:04;;;;;;;;;;;;;;;-142.75;100.00;76814.38;4991002;28;19924;-71
2022/06/22 05:28:29;;;;;;;;;;;;;;;-142.75;100.00;76802.56;4990909;28;19959;-71
2022/06/22 05:30:58;;;;;;;;;;;;;;;-142.75;100.00;76794.69;4991668;28;20003;-71
2022/06/22 05:33:25;;;;;;;;;;;;;;;-142.75;100.00;76780.94;4991583;28;19926;-71
2022/06/22 05:36:11;;;;;;;;;;;;;;;-142.75;100.00;76784.88;4975273;28;20019;-69
2022/06/22 05:38:37;;;;;;;;;;;;;;;-142.75;100.00;76765.19;4990923;28;19922;-70
2022/06/22 05:41:07;;;;;;;;;;;;;;;-142.75;100.00;76755.34;5003360;28;20303;-71
2022/06/22 05:43:33;;;;;;;;;;;;;;;-142.75;100.00;76747.47;5017406;28;20291;-72
2022/06/22 05:46:02;;;;;;;;;;;;;;;-142.75;100.00;76733.69;4991562;28;19921;-71
2022/06/22 05:48:29;;;;;;;;;;;;;;;-142.75;100.00;76717.94;4973490;28;19967;-71
2022/06/22 05:50:57;;;;;;;;;;;;;;;-142.75;100.00;76708.09;4991552;28;20345;-69
2022/06/22 05:53:39;;;;;;;;;;;;;;;-142.75;100.00;76690.38;4991279;28;20371;-71
2022/06/22 05:56:04;;;;;;;;;;;;;;;-142.75;100.00;76672.66;4991260;28;19959;-71
2022/06/22 05:58:36;;;;;;;;;;;;;;;-142.75;100.00;76654.94;4990774;28;19917;-72
2022/06/22 06:01:02;;;;;;;;;;;;;;;-142.75;100.00;76647.06;4991468;28;19914;-71
2022/06/22 06:03:43;;;;;;;;;;;;;;;-142.75;100.00;76633.28;4991116;28;19940;-71
2022/06/22 06:06:11;;;;;;;;;;;;;;;-142.75;100.00;76605.72;4982891;28;19922;-71
2022/06/22 06:08:42;;;;;;;;;;;;;;;-142.75;100.00;76595.88;4987345;28;20388;-71
2022/06/22 06:11:11;;;;;;;;;;;;;;;-142.75;100.00;76570.28;4973665;28;19992;-70
2022/06/22 06:13:38;;;;;;;;;;;;;;;-142.75;100.00;76548.63;4989960;28;20387;-71
2022/06/22 06:16:16;;;;;;;;;;;;;;;-142.75;100.00;76523.06;4991117;28;20296;-71
2022/06/22 06:18:43;;;;;;;;;;;;;;;-142.75;100.00;76507.31;4990581;28;19921;-71
2022/06/22 06:21:10;;;;;;;;;;;;;;;-142.75;100.00;76495.50;4991326;28;20040;-71
2022/06/22 06:23:51;;;;;;;;;;;;;;;-142.75;100.00;76477.78;4998410;28;19957;-71
2022/06/22 06:29:15;;;;;;;;;;;;;;;-142.75;100.00;76430.53;4985363;28;19924;-72
2022/06/22 06:31:41;;;;;;;;;;;;;;;-142.75;100.00;76420.69;4990851;28;19918;-71
2022/06/22 06:34:16;;;;;;;;;;;;;;;-142.75;100.00;76395.09;4990683;28;19918;-72
2022/06/22 06:36:49;;;;;;;;;;;;;;;-142.75;100.00;76373.44;4990752;28;19949;-71
2022/06/22 06:39:18;;;;;;;;;;;;;;;-142.75;100.00;76357.69;4990262;28;19944;-70
2022/06/22 06:41:46;;;;;;;;;;;;;;;-142.75;100.00;76341.97;4990793;28;19918;-72
2022/06/22 06:44:11;;;;;;;;;;;;;;;-142.75;100.00;76318.34;4990871;28;20391;-72
2022/06/22 06:46:38;;;;;;;;;;;;;;;-142.75;100.00;76308.50;4990710;28;19921;-71
2022/06/22 06:49:09;;;;;;;;;;;;;;;-142.75;100.00;76284.88;4990239;28;19978;-73
2022/06/22 06:51:36;;;;;;;;;;;;;;;-142.75;100.00;76277.00;4990757;28;19913;-70
2022/06/22 06:54:10;;;;;;;;;;;;;;;-142.75;100.00;76267.16;4973103;28;19922;-71
2022/06/22 06:56:43;;;;;;;;;;;;;;;-142.75;100.00;76249.44;4973058;28;19914;-69
2022/06/22 06:59:12;;;;;;;;;;;;;;;-142.75;100.00;76227.78;4961638;28;19979;-71
2022/06/22 07:01:39;;;;;;;;;;;;;;;-142.75;100.00;76208.09;4970627;28;20402;-72
2022/06/22 07:04:13;;;;;;;;;;;;;;;-142.75;100.00;76206.13;4982451;28;19941;-72
2022/06/22 07:06:39;;;;;;;;;;;;;;;-142.75;100.00;76192.38;4980866;28;20276;-72
2022/06/22 07:09:11;;;;;;;;;;;;;;;-142.75;100.00;76180.56;4971351;28;19920;-73
2022/06/22 07:11:36;;;;;;;;;;;;;;;-142.75;100.00;76176.63;4972922;28;20014;-70
2022/06/22 07:14:13;;;;;;;;;;;;;;;-142.75;100.00;76156.94;4972794;28;19965;-66
2022/06/22 07:16:38;;;;;;;;;;;;;;;-142.75;100.00;76143.16;4979841;28;19961;-67
2022/06/22 07:19:12;;;;;;;;;;;;;;;-142.75;100.00;76160.88;4977339;28;19988;-65
2022/06/22 07:21:43;;;;;;;;;;;;;;;-142.75;100.00;76158.91;4989489;28;19918;-65
2022/06/22 07:24:15;;;;;;;;;;;;;;;-142.75;100.00;76147.09;4990770;28;20006;-66
2022/06/22 07:26:49;;;;;;;;;;;;;;;-142.75;100.00;76147.09;4990862;28;19917;-65
2022/06/22 07:29:22;;;;;;;;;;;;;;;-142.75;100.00;76109.69;4990454;28;20375;-65
2022/06/22 07:31:52;;;;;;;;;;;;;;;-142.75;100.00;76103.78;4990832;28;19953;-64
2022/06/22 07:34:27;;;;;;;;;;;;;;;-142.75;100.00;76076.22;4990960;28;19924;-65
2022/06/22 07:37:00;;;;;;;;;;;;;;;-142.75;100.00;76058.53;4990850;28;19957;-64
2022/06/22 07:39:32;;;;;;;;;;;;;;;-142.75;100.00;76044.75;4990411;28;19917;-66
2022/06/22 07:41:59;;;;;;;;;;;;;;;-142.75;100.00;76019.16;4990709;28;19921;-66
2022/06/22 07:44:26;;;;;;;;;;;;;;;-142.75;100.00;76030.97;4990759;28;19914;-66
2022/06/22 07:47:00;;;;;;;;;;;;;;;-142.75;100.00;76042.78;4990692;28;19920;-65
2022/06/22 07:49:36;;;;;;;;;;;;;;;-142.75;100.00;76017.19;4972786;28;19914;-67
2022/06/22 07:52:04;;;;;;;;;;;;;;;-142.75;100.00;76001.44;4990536;28;19913;-66
2022/06/22 07:54:40;;;;;;;;;;;;;;;-142.75;100.00;76007.34;4990574;28;19914;-65
2022/06/22 07:57:24;;;;;;;;;;;;;;;-142.75;100.00;75983.72;4990467;28;19917;-64
2022/06/22 07:59:55;;;;;;;;;;;;;;;-142.75;100.00;75971.91;4990263;28;19914;-66
2022/06/22 08:02:23;;;;;;;;;;;;;;;-142.75;100.00;75954.22;4990477;28;19914;-65
2022/06/22 08:04:55;;;;;;;;;;;;;;;-142.75;100.00;75936.50;4990389;28;19914;-65
2022/06/22 08:07:22;;;;;;;;;;;;;;;-142.75;100.00;75906.97;4990562;28;19967;-65
2022/06/22 08:09:55;;;;;;;;;;;;;;;-142.75;100.00;75905.00;4990215;28;19968;-68
2022/06/22 08:12:44;;;;;;;;;;;;;;;-142.75;100.00;75871.53;4990456;28;19953;-66
2022/06/22 08:15:15;;;;;;;;;;;;;;;-142.75;100.00;75881.38;4979582;28;20434;-66
2022/06/22 08:17:44;;;;;;;;;;;;;;;-142.75;100.00;75889.25;4990199;28;19914;-66
2022/06/22 08:20:13;;;;;;;;;;;;;;;-142.75;100.00;75877.44;4990130;28;19936;-68
2022/06/22 08:22:38;;;;;;;;;;;;;;;-142.75;100.00;75865.63;4990190;28;19921;-66
2022/06/22 08:25:04;;;;;;;;;;;;;;;-142.75;100.00;75873.50;4990203;28;19917;-65
2022/06/22 08:27:29;;;;;;;;;;;;;;;-142.75;100.00;75855.81;4990023;28;20355;-66
2022/06/22 08:29:56;;;;;;;;;;;;;;;-142.75;100.00;75842.03;4989862;28;19924;-67
2022/06/22 08:32:33;;;;;;;;;;;;;;;-142.75;100.00;75818.41;4990035;28;19926;-66
2022/06/22 08:35:02;;;;;;;;;;;;;;;-142.75;96.68;75788.88;4989849;28;19914;-66
2022/06/22 08:40:00;;;;;;;;;;;;;;;-142.75;100.00;75777.06;4966062;28;19926;-65
2022/06/22 08:42:44;;;;;;;;;;;;;;;-142.75;95.53;75767.22;4968193;28;19987;-64
2022/06/22 08:45:15;;;;;;;;;;;;;;;-142.75;100.00;75775.09;4970584;28;19914;-64
2022/06/22 08:47:49;;;;;;;;;;;;;;;-142.75;91.33;75767.22;4970459;28;19971;-65
2022/06/22 08:50:33;;;;;;;;;;;;;;;-142.75;83.88;75749.53;4970323;28;20467;-65
2022/06/22 08:53:01;;;;;;;;;;;;;;;-142.75;90.34;75729.84;4970509;28;19922;-65
2022/06/22 08:55:44;;;;;;;;;;;;;;;-142.75;86.02;75731.81;4970523;28;20367;-64
2022/06/22 08:58:33;;;;;;;;;;;;;;;-142.75;85.64;75714.09;4968995;28;19922;-63
2022/06/22 09:01:10;;;;;;;;;;;;;;;-142.75;80.14;75700.31;4975389;28;19950;-65
2022/06/22 09:03:51;;;;;;;;;;;;;;;-142.75;76.12;75688.50;4970378;28;19968;-63
2022/06/22 09:06:32;;;;;;;;;;;;;;;-142.75;86.23;75664.91;4970447;28;19945;-65
2022/06/22 09:08:57;;;;;;;;;;;;;;;-142.75;76.48;75708.19;4970003;28;19914;-65
2022/06/22 09:11:37;;;;;;;;;;;;;;;-142.75;71.18;75672.78;4970301;28;20437;-65
2022/06/22 09:14:15;;;;;;;;;;;;;;;-142.75;80.43;75639.31;4970246;28;19929;-65
2022/06/22 09:16:55;;;;;;;;;;;;;;;-142.75;73.94;75659.00;4970268;28;19920;-65
2022/06/22 09:19:23;;;;;;;;;;;;;;;-142.75;68.70;75635.38;4969760;28;19914;-64
2022/06/22 09:22:06;;;;;;;;;;;;;;;-142.75;76.24;75599.94;4970250;28;20304;-64
2022/06/22 09:24:41;;;;;;;;;;;;;;;-142.75;73.68;75588.16;4970343;28;20068;-65
2022/06/22 09:27:17;;;;;;;;;;;;;;;-142.75;74.59;75576.34;4970145;28;19914;-64
2022/06/22 09:29:42;;;;;;;;;;;;;;;-142.75;69.73;75542.88;4969738;28;19979;-65
2022/06/22 09:32:10;;;;;;;;;;;;;;;-142.75;72.12;75550.75;4969932;28;19914;-65
2022/06/22 09:34:54;;;;;;;;;;;;;;;-142.75;69.86;75544.84;4970016;28;20001;-63
2022/06/22 09:37:33;;;;;;;;;;;;;;;-142.75;69.62;75554.69;4970024;28;19914;-65
2022/06/22 09:40:13;;;;;;;;;;;;;;;-142.75;66.58;75554.69;4969812;28;20452;-64
2022/06/22 09:42:47;;;;;;;;;;;;;;;-142.75;71.07;75515.31;4970014;28;19918;-65
2022/06/22 09:45:25;;;;;;;;;;;;;;;-142.75;64.23;75505.50;4970018;28;19918;-64
2022/06/22 09:47:53;;;;;;;;;;;;;;;-142.75;59.30;75538.94;4970363;28;19918;-64
2022/06/22 09:50:21;;;;;;;;;;;;;;;-142.75;61.99;75527.13;4973218;28;19914;-64
2022/06/22 09:52:49;;;;;;;;;;;;;;;-142.75;61.38;75495.66;4973080;28;19918;-64
2022/06/22 09:58:42;;;;;;;;;;;;;;;-142.75;59.60;75531.06;4972727;28;19920;-65
2022/06/22 10:01:07;;;;;;;;;;;;;;;-142.75;60.02;75515.31;4973010;28;20388;-64
2022/06/22 10:03:47;;;;;;;;;;;;;;;-142.75;62.20;75517.28;4973157;28;19957;-64
2022/06/22 10:06:24;;;;;;;;;;;;;;;-142.75;57.94;75521.22;4973018;28;19945;-65
2022/06/22 10:08:49;;;;;;;;;;;;;;;-142.75;57.79;75507.47;4972538;28;19914;-64
2022/06/22 10:11:28;;;;;;;;;;;;;;;-142.75;56.71;75519.25;4972879;28;20016;-65
2022/06/22 10:14:17;;;;;;;;;;;;;;;-142.75;55.94;75515.31;4972808;28;19918;-64
2022/06/22 10:16:43;;;;;;;;;;;;;;;-142.75;53.38;75511.41;4972740;28;19926;-65
2022/06/22 10:19:08;;;;;;;;;;;;;;;-142.75;58.58;75517.28;4972474;28;19914;-64
2022/06/22 10:21:39;;;;;;;;;;;;;;;-142.75;60.00;75509.44;4972734;28;19921;-64
2022/06/22 10:24:05;;;;;;;;;;;;;;;-142.75;58.53;75497.63;4972791;28;19921;-65
2022/06/22 10:26:36;;;;;;;;;;;;;;;-142.75;55.54;75499.59;4972806;28;19914;-65
2022/06/22 10:29:07;;;;;;;;;;;;;;;-142.75;57.15;75523.19;4972412;28;19945;-65
2022/06/22 10:32:04;;;;;;;;;;;;;;;-142.75;57.74;75472.03;4972569;28;19922;-65
2022/06/22 10:34:38;;;;;;;;;;;;;;;-142.75;58.28;75493.69;4994634;28;20320;-64
2022/06/22 10:37:07;;;;;;;;;;;;;;;-142.75;58.54;75477.94;4972132;28;19967;-64
2022/06/22 10:39:47;;;;;;;;;;;;;;;-142.75;63.58;75481.88;4972668;28;19922;-65
2022/06/22 10:45:26;;;;;;;;;;;;;;;-142.75;51.86;75479.91;4972406;28;20068;-64
2022/06/22 10:47:51;;;;;;;;;;;;;;;-142.75;59.03;75472.03;4971974;28;19921;-64
2022/06/22 10:50:20;;;;;;;;;;;;;;;-142.75;54.40;75487.78;4972145;28;19914;-64
2022/06/22 10:52:57;;;;;;;;;;;;;;;-142.75;52.56;75519.25;4972241;28;19918;-64
2022/06/22 10:55:25;;;;;;;;;;;;;;;-142.75;59.17;75466.13;4972114;28;19918;-64
2022/06/22 10:57:58;;;;;;;;;;;;;;;-142.75;58.34;75436.59;4971727;28;19914;-64
2022/06/22 11:00:46;;;;;;;;;;;;;;;-142.75;54.58;75438.56;4971525;28;19914;-63
2022/06/22 11:03:27;;;;;;;;;;;;;;;-142.75;57.01;75448.41;4989227;28;20291;-65
2022/06/22 11:05:52;;;;;;;;;;;;;;;-142.75;56.81;75460.22;4970819;28;19962;-64
2022/06/22 11:08:36;;;;;;;;;;;;;;;-142.75;56.10;75475.97;4970500;28;19957;-64
2022/06/22 11:11:04;;;;;;;;;;;;;;;-142.75;54.70;75432.69;4970806;28;19914;-65
2022/06/22 11:13:32;;;;;;;;;;;;;;;-142.75;55.33;75426.78;4970551;28;19925;-65
2022/06/22 11:16:00;;;;;;;;;;;;;;;-142.75;55.42;75422.84;4970462;28;20427;-65
2022/06/22 11:18:41;;;;;;;;;;;;;;;-142.75;55.93;75428.75;4971196;28;19918;-65
2022/06/22 11:21:13;;;;;;;;;;;;;;;-142.75;59.32;75381.50;4971537;28;19926;-64
2022/06/22 11:23:53;;;;;;;;;;;;;;;-142.75;57.59;75348.06;4971654;28;19958;-64
2022/06/22 11:32:06;;;;;;;;;;;;;;;-142.75;56.33;75369.69;4952579;29;19920;-65
2022/06/22 11:34:40;;;;;;;;;;;;;;;-142.75;55.64;75361.84;4952312;29;19938;-65
2022/06/22 11:37:05;;;;;;;;;;;;;;;-142.75;57.89;75298.84;4952311;28;20005;-65
2022/06/22 11:39:30;;;;;;;;;;;;;;;-142.75;53.60;75298.84;4951732;29;20050;-67
2022/06/22 11:42:11;;;;;;;;;;;;;;;-142.75;58.88;75318.53;4950948;28;19929;-66
2022/06/22 11:48:04;;;;;;;;;;;;;;;-142.75;55.38;75281.16;4950369;29;20009;-66
2022/06/22 11:50:54;;;;;;;;;;;;;;;-142.75;55.26;75289.03;4952097;28;19945;-66
2022/06/22 11:53:25;;;;;;;;;;;;;;;-142.75;58.87;75275.25;4952000;28;19929;-66
2022/06/22 11:55:54;;;;;;;;;;;;;;;-142.75;53.85;75283.13;4951930;29;19938;-66
2022/06/22 11:58:38;;;;;;;;;;;;;;;-142.75;63.64;75253.59;4951622;28;19922;-66
2022/06/22 12:01:29;;;;;;;;;;;;;;;-142.75;58.30;75273.28;4951784;28;19915;-65
2022/06/22 12:03:58;;;;;;;;;;;;;;;-142.75;58.54;75298.84;4951875;28;19960;-65
2022/06/22 12:06:23;;;;;;;;;;;;;;;-142.75;54.54;75310.66;4951854;29;19914;-66
2022/06/22 12:08:48;;;;;;;;;;;;;;;-142.75;61.61;75251.63;4951511;29;19941;-65
2022/06/22 12:11:32;;;;;;;;;;;;;;;-142.75;57.15;75287.06;4950887;29;20403;-65
2022/06/22 12:17:02;;;;;;;;;;;;;;;-142.75;60.35;75308.69;4952014;29;19960;-65
2022/06/22 12:19:33;;;;;;;;;;;;;;;-142.75;59.44;75257.53;4951325;29;19914;-65
2022/06/22 12:22:11;;;;;;;;;;;;;;;-142.75;60.86;75241.78;4951665;29;19919;-65
2022/06/22 12:24:39;;;;;;;;;;;;;;;-142.75;58.03;75237.84;4951500;28;19915;-65
2022/06/22 12:27:10;;;;;;;;;;;;;;;-142.75;57.65;75233.91;4951018;28;19926;-67
2022/06/22 12:29:36;;;;;;;;;;;;;;;-142.75;60.64;75222.13;4959831;28;19918;-66
2022/06/22 12:32:11;;;;;;;;;;;;;;;-142.75;58.48;75210.31;4970927;28;20005;-67
2022/06/22 12:34:41;;;;;;;;;;;;;;;-142.75;61.78;75172.91;4970797;28;19925;-67
2022/06/22 12:37:13;;;;;;;;;;;;;;;-142.75;60.47;75170.94;4970807;28;20410;-66
2022/06/22 12:39:43;;;;;;;;;;;;;;;-142.75;59.63;75188.66;4970347;28;19967;-67
2022/06/22 12:42:29;;;;;;;;;;;;;;;-142.75;59.85;75192.59;4970790;28;19914;-67
2022/06/22 12:44:57;;;;;;;;;;;;;;;-142.75;58.01;75200.47;4970820;28;20009;-67
2022/06/22 12:47:41;;;;;;;;;;;;;;;-142.75;59.21;75192.59;4965707;28;19918;-67
2022/06/22 12:50:25;;;;;;;;;;;;;;;-142.75;54.53;75239.81;4953264;28;19923;-67
2022/06/22 12:52:56;;;;;;;;;;;;;;;-142.75;57.50;75261.47;4951175;28;19926;-67
2022/06/22 12:55:27;;;;;;;;;;;;;;;-142.75;56.06;75259.50;4951692;28;20001;-66
2022/06/22 12:57:59;;;;;;;;;;;;;;;-142.75;58.09;75235.88;4963691;28;19925;-67
2022/06/22 13:00:24;;;;;;;;;;;;;;;-142.75;57.00;75283.13;4951378;28;19915;-67
2022/06/22 13:02:51;;;;;;;;;;;;;;;-142.75;57.24;75287.06;4951253;28;19921;-67
2022/06/22 13:05:18;;;;;;;;;;;;;;;-142.75;59.28;75243.75;4951731;28;20009;-67
2022/06/22 13:07:56;;;;;;;;;;;;;;;-142.75;60.26;75239.81;4951376;28;20380;-67
2022/06/22 13:10:23;;;;;;;;;;;;;;;-142.75;57.86;75271.31;4950397;28;19915;-67
2022/06/22 13:12:51;;;;;;;;;;;;;;;-142.75;60.16;75263.44;4951446;28;20315;-67
2022/06/22 13:15:22;;;;;;;;;;;;;;;-142.75;64.96;75251.63;4949880;29;20380;-67